Terminal Aerodrome Forecast
Issued by NWS Tulsa, OK

Home | Current Version | Previous Version | Text Only | Print | Product List | Glossary On
Versions: 1 2 3 4 5 6 7 8 9 10 11 12 13 14 15 16 17 18
224
FTUS44 KTSA 281308 AAA
TAFFSM
TAF AMD
KFSM 281308Z 2813/2912 08003KT 1SM BR BKN040
      TEMPO 2813/2815 1/4SM FG VV001
     FM281500 08007KT P6SM BKN035
     FM290000 08007KT P6SM BKN040 PROB30 2906/2912 -TSRA BKN040CB=

USA.gov is the U.S. government's official web portal to all federal, state and local government web resources and services.